Time;durP1;ratioP1;P1;durP2;ratioP2;P2;SDS_P1;SDS_P2;PMS_P1;PMS_P2;Temp;Humidity;BMP_temperature;BMP_pressure;BME280_temperature;BME280_humidity;BME280_pressure;Samples;Min_cycle;Max_cycle;Signal;HPM_P1;HPM_P2
2021/10/09 00:01:51;;;;;;;;;20.25;20.25;;;;;;;;5079104;27;45559;-73
2021/10/09 00:04:16;;;;;;;;;23.75;20.50;;;;;;;;5078089;27;46044;-73
2021/10/09 00:06:41;;;;;;;;;17.50;15.00;;;;;;;;5078022;27;45294;-73
2021/10/09 00:09:09;;;;;;;;;23.00;17.00;;;;;;;;5076621;27;45421;-73
2021/10/09 00:11:38;;;;;;;;;26.00;20.00;;;;;;;;5074688;27;45432;-73
2021/10/09 00:14:07;;;;;;;;;20.75;19.75;;;;;;;;5078942;27;47161;-73
2021/10/09 00:16:32;;;;;;;;;22.25;21.00;;;;;;;;5077705;27;45492;-73
2021/10/09 00:18:58;;;;;;;;;22.50;20.50;;;;;;;;5077579;27;45665;-73
2021/10/09 00:21:23;;;;;;;;;20.50;20.50;;;;;;;;5076027;27;45528;-72
2021/10/09 00:23:48;;;;;;;;;22.00;19.75;;;;;;;;5053646;27;48526;-73
2021/10/09 00:26:14;;;;;;;;;24.25;20.50;;;;;;;;5079441;27;45388;-73
2021/10/09 00:28:39;;;;;;;;;18.75;17.00;;;;;;;;5059063;28;45491;-74
2021/10/09 00:31:04;;;;;;;;;17.25;15.00;;;;;;;;5077877;27;45451;-72
2021/10/09 00:33:29;;;;;;;;;24.00;22.00;;;;;;;;5077526;27;47074;-72
2021/10/09 00:35:55;;;;;;;;;27.00;23.75;;;;;;;;5074655;27;45515;-72
2021/10/09 00:38:22;;;;;;;;;20.50;17.50;;;;;;;;5078050;27;45382;-74
2021/10/09 00:40:48;;;;;;;;;19.00;17.50;;;;;;;;5078830;27;45383;-72
2021/10/09 00:43:13;;;;;;;;;24.00;24.00;;;;;;;;5079721;27;45377;-74
2021/10/09 00:45:38;;;;;;;;;24.25;22.50;;;;;;;;5081579;27;45490;-74
2021/10/09 00:48:04;;;;;;;;;20.25;18.75;;;;;;;;5079335;27;45734;-73
2021/10/09 00:50:29;;;;;;;;;23.75;21.50;;;;;;;;5060699;28;45591;-73
2021/10/09 00:52:55;;;;;;;;;21.00;19.00;;;;;;;;5082643;27;46557;-73
2021/10/09 00:55:20;;;;;;;;;22.75;19.00;;;;;;;;5080859;27;45527;-73
2021/10/09 00:57:47;;;;;;;;;22.50;21.75;;;;;;;;5078253;27;45348;-73
2021/10/09 01:00:13;;;;;;;;;21.50;20.75;;;;;;;;5078696;27;45378;-73
2021/10/09 01:02:38;;;;;;;;;21.75;19.75;;;;;;;;5076720;27;46122;-73
2021/10/09 01:05:04;;;;;;;;;30.50;26.50;;;;;;;;5081639;27;45374;-73
2021/10/09 01:07:29;;;;;;;;;20.25;17.75;;;;;;;;5081199;27;45469;-74
2021/10/09 01:09:54;;;;;;;;;23.50;19.25;;;;;;;;5080767;27;45352;-73
2021/10/09 01:12:20;;;;;;;;;20.00;19.25;;;;;;;;5080568;27;45922;-74
2021/10/09 01:14:46;;;;;;;;;24.50;21.50;;;;;;;;5076672;28;45325;-73
2021/10/09 01:17:12;;;;;;;;;20.25;17.00;;;;;;;;5082766;27;45374;-72
2021/10/09 01:19:37;;;;;;;;;22.25;19.50;;;;;;;;5080600;27;45322;-73
2021/10/09 01:22:03;;;;;;;;;29.00;19.75;;;;;;;;5062002;28;47603;-72
2021/10/09 01:24:28;;;;;;;;;15.00;15.00;;;;;;;;5080596;27;45307;-72
2021/10/09 01:26:53;;;;;;;;;26.00;21.75;;;;;;;;5077109;27;45346;-72
2021/10/09 01:29:19;;;;;;;;;26.75;22.50;;;;;;;;5081169;27;45460;-72
2021/10/09 01:31:44;;;;;;;;;22.50;19.50;;;;;;;;5080726;27;48583;-73
2021/10/09 01:34:09;;;;;;;;;28.25;24.25;;;;;;;;5080781;27;45600;-73
2021/10/09 01:36:37;;;;;;;;;26.75;23.25;;;;;;;;5080495;27;45591;-73
2021/10/09 01:39:03;;;;;;;;;18.75;18.00;;;;;;;;5076367;27;45507;-73
2021/10/09 01:41:28;;;;;;;;;24.75;21.50;;;;;;;;5078036;27;46309;-73
2021/10/09 01:43:54;;;;;;;;;28.25;24.50;;;;;;;;5079736;27;45620;-72
2021/10/09 01:46:19;;;;;;;;;25.00;22.75;;;;;;;;5080439;27;45530;-73
2021/10/09 01:48:45;;;;;;;;;23.00;21.25;;;;;;;;5080002;27;46512;-73
2021/10/09 01:51:11;;;;;;;;;24.00;22.75;;;;;;;;5078826;27;45417;-73
2021/10/09 01:53:36;;;;;;;;;26.25;22.25;;;;;;;;5076726;27;45381;-73
2021/10/09 01:56:02;;;;;;;;;22.25;20.00;;;;;;;;5081710;27;45306;-71
2021/10/09 01:58:27;;;;;;;;;22.50;17.00;;;;;;;;5079839;27;45705;-73
2021/10/09 02:00:53;;;;;;;;;25.50;23.25;;;;;;;;5079931;27;45431;-73
2021/10/09 02:03:20;;;;;;;;;23.25;21.00;;;;;;;;5080019;27;45419;-73
2021/10/09 02:05:45;;;;;;;;;25.00;22.75;;;;;;;;5059578;28;45340;-72
2021/10/09 02:08:11;;;;;;;;;22.25;18.25;;;;;;;;5082185;27;45459;-74
2021/10/09 02:10:45;;;;;;;;;29.25;26.25;;;;;;;;5079504;27;46624;-73
2021/10/09 02:13:13;;;;;;;;;29.50;23.00;;;;;;;;5079833;27;45551;-73
2021/10/09 02:15:44;;;;;;;;;26.00;22.00;;;;;;;;5079876;27;45805;-73
2021/10/09 02:26:36;;;;;;;;;25.00;24.00;;;;;;;;4995611;28;45324;-73
2021/10/09 02:29:02;;;;;;;;;27.75;23.00;;;;;;;;4999280;28;45391;-73
2021/10/09 02:31:28;;;;;;;;;24.50;21.25;;;;;;;;4998449;28;45628;-73
2021/10/09 02:33:53;;;;;;;;;21.50;21.50;;;;;;;;4998130;28;45546;-73
2021/10/09 02:36:18;;;;;;;;;26.00;23.00;;;;;;;;4998676;28;45421;-73
2021/10/09 02:38:45;;;;;;;;;26.75;20.50;;;;;;;;4977729;28;45421;-73
2021/10/09 02:41:10;;;;;;;;;28.25;26.25;;;;;;;;4998882;28;46246;-73
2021/10/09 02:43:35;;;;;;;;;25.25;22.75;;;;;;;;4998365;28;45485;-73
2021/10/09 02:46:00;;;;;;;;;21.25;21.25;;;;;;;;4998115;28;45511;-73
2021/10/09 02:48:26;;;;;;;;;23.50;23.00;;;;;;;;4998172;28;45320;-73
2021/10/09 02:50:51;;;;;;;;;26.00;24.50;;;;;;;;4994090;28;45436;-74
2021/10/09 02:53:16;;;;;;;;;29.25;27.50;;;;;;;;4997145;28;45294;-73
2021/10/09 02:55:41;;;;;;;;;26.25;21.50;;;;;;;;4997880;28;45500;-73
2021/10/09 02:58:06;;;;;;;;;28.50;25.00;;;;;;;;5046617;27;45616;-74
2021/10/09 03:00:33;;;;;;;;;31.00;27.75;;;;;;;;5076505;27;46178;-74
2021/10/09 03:02:59;;;;;;;;;23.00;23.00;;;;;;;;5075991;27;45325;-73
2021/10/09 03:05:24;;;;;;;;;28.25;24.25;;;;;;;;5077206;27;45447;-73
2021/10/09 03:07:50;;;;;;;;;31.00;28.50;;;;;;;;5079732;27;45401;-72
2021/10/09 03:10:15;;;;;;;;;26.50;26.00;;;;;;;;5077105;27;45354;-73
2021/10/09 03:12:40;;;;;;;;;27.00;24.00;;;;;;;;5078522;27;45495;-72
2021/10/09 03:15:06;;;;;;;;;27.50;23.50;;;;;;;;5077088;27;45421;-72
2021/10/09 03:17:32;;;;;;;;;29.75;23.25;;;;;;;;5075916;27;45455;-74
2021/10/09 03:19:57;;;;;;;;;29.25;28.25;;;;;;;;5080499;27;45470;-74
2021/10/09 03:22:22;;;;;;;;;30.25;25.25;;;;;;;;5077970;27;45489;-72
2021/10/09 03:24:48;;;;;;;;;38.50;30.25;;;;;;;;5078445;27;45419;-73
2021/10/09 03:27:13;;;;;;;;;35.50;28.50;;;;;;;;5078074;27;45326;-72
2021/10/09 03:29:38;;;;;;;;;36.75;30.75;;;;;;;;5074659;27;45419;-74
2021/10/09 03:32:04;;;;;;;;;33.00;29.75;;;;;;;;5080509;27;45372;-73
2021/10/09 03:34:32;;;;;;;;;35.00;30.75;;;;;;;;5078362;27;45383;-73
2021/10/09 03:36:59;;;;;;;;;32.75;25.75;;;;;;;;5076828;27;45485;-73
2021/10/09 03:39:24;;;;;;;;;37.75;28.00;;;;;;;;5076738;27;47062;-73
2021/10/09 03:41:54;;;;;;;;;28.00;25.75;;;;;;;;5074448;27;45349;-73
2021/10/09 03:44:20;;;;;;;;;35.00;29.50;;;;;;;;5078742;27;45459;-73
2021/10/09 03:46:59;;;;;;;;;33.50;30.00;;;;;;;;5078926;27;45402;-73
2021/10/09 03:50:19;;;;;;;;;32.75;28.50;;;;;;;;5077884;27;46575;-73
2021/10/09 03:55:09;;;;;;;;;36.25;29.25;;;;;;;;4997248;28;45522;-73
2021/10/09 03:57:35;;;;;;;;;38.75;33.50;;;;;;;;4996914;28;45637;-73
2021/10/09 04:00:00;;;;;;;;;41.75;34.50;;;;;;;;4994222;28;46081;-74
2021/10/09 04:02:25;;;;;;;;;32.25;31.00;;;;;;;;4995248;28;45640;-73
2021/10/09 04:04:51;;;;;;;;;29.50;28.25;;;;;;;;4997534;28;45426;-73
2021/10/09 04:07:16;;;;;;;;;29.00;28.00;;;;;;;;4996517;28;45417;-73
2021/10/09 04:09:41;;;;;;;;;38.50;34.50;;;;;;;;4996138;28;47364;-72
2021/10/09 04:12:06;;;;;;;;;33.00;29.75;;;;;;;;4994874;28;45503;-72
2021/10/09 04:14:31;;;;;;;;;44.50;34.25;;;;;;;;4993789;28;45363;-73
2021/10/09 04:16:56;;;;;;;;;36.75;32.00;;;;;;;;4996149;28;45538;-72
2021/10/09 04:19:22;;;;;;;;;42.50;40.00;;;;;;;;4995965;28;47190;-74
2021/10/09 04:21:47;;;;;;;;;44.75;37.00;;;;;;;;4995963;28;46002;-73
2021/10/09 04:24:15;;;;;;;;;36.50;34.25;;;;;;;;4995389;28;45580;-73
2021/10/09 04:26:40;;;;;;;;;37.25;34.50;;;;;;;;4993881;28;45548;-73
2021/10/09 04:29:05;;;;;;;;;37.50;33.25;;;;;;;;4997044;28;46752;-74
2021/10/09 04:31:30;;;;;;;;;37.75;33.25;;;;;;;;5062857;27;45479;-73
2021/10/09 04:33:56;;;;;;;;;38.00;33.00;;;;;;;;5077838;27;45437;-73
2021/10/09 04:36:21;;;;;;;;;46.50;37.00;;;;;;;;5077348;27;45545;-73
2021/10/09 04:38:46;;;;;;;;;32.50;28.75;;;;;;;;5072631;27;46842;-73
2021/10/09 04:41:11;;;;;;;;;37.75;32.50;;;;;;;;5079277;27;45521;-73
2021/10/09 04:43:36;;;;;;;;;40.00;30.00;;;;;;;;5077449;27;45357;-74
2021/10/09 04:46:02;;;;;;;;;38.50;32.25;;;;;;;;5077640;27;45305;-73
2021/10/09 04:48:28;;;;;;;;;37.50;32.00;;;;;;;;5077123;27;47355;-74
2021/10/09 04:50:53;;;;;;;;;39.75;33.75;;;;;;;;5073689;27;45328;-72
2021/10/09 04:53:18;;;;;;;;;35.25;32.00;;;;;;;;5077746;27;45349;-74
2021/10/09 04:55:44;;;;;;;;;32.00;26.50;;;;;;;;5057560;28;45525;-72
2021/10/09 04:58:09;;;;;;;;;43.00;36.50;;;;;;;;5075527;27;46439;-72
2021/10/09 05:00:34;;;;;;;;;38.25;33.25;;;;;;;;5076918;27;46043;-73
2021/10/09 05:02:59;;;;;;;;;33.50;33.50;;;;;;;;5074599;27;45422;-73
2021/10/09 05:05:24;;;;;;;;;34.75;34.25;;;;;;;;5075643;27;45314;-73
2021/10/09 05:07:50;;;;;;;;;33.75;30.50;;;;;;;;5077853;27;46149;-73
2021/10/09 05:10:15;;;;;;;;;46.75;37.00;;;;;;;;5076765;27;45450;-73
2021/10/09 05:12:40;;;;;;;;;34.50;30.50;;;;;;;;5076727;27;45566;-73
2021/10/09 05:15:06;;;;;;;;;39.75;34.50;;;;;;;;5074975;27;45265;-72
2021/10/09 05:17:31;;;;;;;;;39.50;33.25;;;;;;;;5074262;27;47024;-73
2021/10/09 05:19:56;;;;;;;;;41.00;34.25;;;;;;;;5078418;27;47319;-73
2021/10/09 05:22:22;;;;;;;;;43.00;32.75;;;;;;;;5076465;27;45398;-72
2021/10/09 05:24:50;;;;;;;;;41.00;31.50;;;;;;;;5076681;27;45371;-74
2021/10/09 05:27:15;;;;;;;;;36.00;31.75;;;;;;;;5075793;27;46908;-72
2021/10/09 05:29:40;;;;;;;;;32.00;29.25;;;;;;;;5075347;27;45390;-73
2021/10/09 05:32:07;;;;;;;;;40.50;33.50;;;;;;;;5081940;27;45294;-73
2021/10/09 05:34:32;;;;;;;;;38.00;33.50;;;;;;;;5078344;27;45465;-73
2021/10/09 05:36:58;;;;;;;;;42.00;35.25;;;;;;;;5060922;27;46036;-73
2021/10/09 05:39:23;;;;;;;;;35.75;31.25;;;;;;;;5090328;27;45411;-72
2021/10/09 05:41:48;;;;;;;;;32.00;31.75;;;;;;;;5075637;27;45315;-73
2021/10/09 05:44:14;;;;;;;;;36.50;29.25;;;;;;;;5081192;27;45437;-73
2021/10/09 05:46:39;;;;;;;;;33.75;31.75;;;;;;;;5078941;27;46187;-73
2021/10/09 05:49:05;;;;;;;;;42.25;36.00;;;;;;;;5079379;27;45465;-72
2021/10/09 05:51:36;;;;;;;;;34.50;31.75;;;;;;;;5079870;27;45360;-74
2021/10/09 05:54:27;;;;;;;;;39.25;32.75;;;;;;;;5077427;27;45642;-72
2021/10/09 05:56:52;;;;;;;;;39.50;36.75;;;;;;;;5058850;27;45891;-72
2021/10/09 06:31:49;;;;;;;;;38.25;32.25;;;;;;;;4996921;28;45640;-74
2021/10/09 06:45:05;;;;;;;;;41.25;34.00;;;;;;;;4993218;28;45439;-75
2021/10/09 07:00:50;;;;;;;;;40.50;34.00;;;;;;;;4995673;28;45915;-74
2021/10/09 07:03:17;;;;;;;;;42.00;33.25;;;;;;;;4978843;28;45440;-75
2021/10/09 07:05:42;;;;;;;;;43.25;35.25;;;;;;;;4993170;28;45330;-74
2021/10/09 07:08:11;;;;;;;;;37.75;31.75;;;;;;;;5054487;28;45349;-76
2021/10/09 07:10:38;;;;;;;;;35.00;33.25;;;;;;;;5077859;27;45583;-74
2021/10/09 07:13:04;;;;;;;;;40.00;37.75;;;;;;;;5077405;27;45442;-74
2021/10/09 07:15:29;;;;;;;;;33.75;30.25;;;;;;;;5077637;27;45328;-73
2021/10/09 07:17:54;;;;;;;;;31.75;30.75;;;;;;;;5074216;27;45410;-73
2021/10/09 07:20:20;;;;;;;;;38.25;33.00;;;;;;;;5078135;27;46340;-73
2021/10/09 07:22:48;;;;;;;;;45.25;34.50;;;;;;;;5078247;27;45422;-73
2021/10/09 07:25:13;;;;;;;;;37.00;33.00;;;;;;;;5077411;27;45320;-73
2021/10/09 07:27:38;;;;;;;;;36.00;33.50;;;;;;;;5076609;27;45353;-74
2021/10/09 07:30:04;;;;;;;;;43.50;35.75;;;;;;;;5073525;27;45548;-74
2021/10/09 07:32:29;;;;;;;;;40.00;33.75;;;;;;;;5076128;27;45625;-73
2021/10/09 07:34:54;;;;;;;;;36.50;32.50;;;;;;;;5077214;27;45280;-73
2021/10/09 07:37:20;;;;;;;;;37.75;32.50;;;;;;;;5077090;27;45477;-73
2021/10/09 07:39:45;;;;;;;;;31.50;30.25;;;;;;;;5076750;27;46274;-73
2021/10/09 07:42:10;;;;;;;;;37.25;32.25;;;;;;;;5076233;27;45562;-73
2021/10/09 07:44:35;;;;;;;;;38.50;33.75;;;;;;;;5074293;27;45402;-73
2021/10/09 07:47:01;;;;;;;;;38.00;33.25;;;;;;;;5079377;27;45347;-73
2021/10/09 07:49:27;;;;;;;;;30.50;27.50;;;;;;;;5077275;27;46883;-73
2021/10/09 07:51:52;;;;;;;;;31.00;30.00;;;;;;;;5077452;27;45817;-74
2021/10/09 07:54:17;;;;;;;;;36.50;33.00;;;;;;;;5089206;27;45414;-74
2021/10/09 07:56:43;;;;;;;;;39.00;33.50;;;;;;;;5073202;27;45358;-71
2021/10/09 07:59:08;;;;;;;;;31.75;28.25;;;;;;;;5094219;27;45306;-74
2021/10/09 08:01:33;;;;;;;;;39.00;34.25;;;;;;;;5078204;27;45410;-72
2021/10/09 08:03:59;;;;;;;;;30.75;26.00;;;;;;;;5077115;27;45485;-73
2021/10/09 08:06:24;;;;;;;;;39.00;34.75;;;;;;;;5058627;27;45449;-74
2021/10/09 08:08:49;;;;;;;;;37.00;32.25;;;;;;;;5070871;27;46428;-74
2021/10/09 08:11:14;;;;;;;;;37.25;29.00;;;;;;;;5078235;27;45449;-75
2021/10/09 08:13:39;;;;;;;;;39.25;33.25;;;;;;;;5075399;27;45518;-74
2021/10/09 08:16:05;;;;;;;;;45.75;38.25;;;;;;;;5058440;28;45589;-73
2021/10/09 08:18:30;;;;;;;;;59.75;48.75;;;;;;;;5075291;27;46209;-73
2021/10/09 08:21:02;;;;;;;;;37.00;32.50;;;;;;;;5073086;27;45342;-75
2021/10/09 08:23:31;;;;;;;;;47.25;36.50;;;;;;;;5074504;27;45440;-73
2021/10/09 08:36:48;;;;;;;;;43.25;35.50;;;;;;;;5075435;27;45406;-74
2021/10/09 08:39:15;;;;;;;;;36.25;30.75;;;;;;;;5075873;27;47183;-75
2021/10/09 08:41:40;;;;;;;;;32.25;27.50;;;;;;;;5072597;27;45340;-74
2021/10/09 08:44:06;;;;;;;;;36.50;29.75;;;;;;;;5079233;27;45462;-76
2021/10/09 08:46:31;;;;;;;;;39.75;33.25;;;;;;;;5076606;27;45385;-75
2021/10/09 08:48:56;;;;;;;;;39.00;34.50;;;;;;;;5074099;27;46456;-75
2021/10/09 08:51:22;;;;;;;;;38.50;31.00;;;;;;;;5075768;27;45420;-76
2021/10/09 08:53:48;;;;;;;;;38.25;33.25;;;;;;;;5072059;27;45468;-75
2021/10/09 08:56:41;;;;;;;;;32.75;31.00;;;;;;;;5075758;27;45425;-72
2021/10/09 09:00:08;;;;;;;;;37.00;32.50;;;;;;;;5077883;27;45443;-73
2021/10/09 09:02:20;;;;;;;;;36.75;32.25;;;;;;;;5079407;27;45384;-72
2021/10/09 09:05:39;;;;;;;;;34.00;28.50;;;;;;;;5080560;27;45193;-71
2021/10/09 09:08:09;;;;;;;;;33.50;29.50;;;;;;;;5073213;27;45327;-72
2021/10/09 09:41:13;;;;;;;;;32.50;31.50;;;;;;;;5038170;28;45506;-78
2021/10/09 09:43:39;;;;;;;;;39.50;34.75;;;;;;;;5036941;28;45638;-78
2021/10/09 09:46:12;;;;;;;;;33.75;30.25;;;;;;;;5036684;28;45451;-77
2021/10/09 09:48:37;;;;;;;;;35.25;31.50;;;;;;;;5070728;27;45371;-77
2021/10/09 09:51:05;;;;;;;;;31.50;27.50;;;;;;;;5076857;27;45577;-79
2021/10/09 09:53:30;;;;;;;;;30.50;27.75;;;;;;;;5076786;27;46430;-78
2021/10/09 09:55:55;;;;;;;;;33.25;29.25;;;;;;;;5080569;27;45328;-77
2021/10/09 09:58:23;;;;;;;;;30.00;28.00;;;;;;;;5078497;27;45473;-78
2021/10/09 10:00:48;;;;;;;;;28.00;27.00;;;;;;;;5078636;27;45631;-77
2021/10/09 10:03:14;;;;;;;;;33.00;30.75;;;;;;;;5077885;27;45481;-77
2021/10/09 10:05:39;;;;;;;;;31.00;27.00;;;;;;;;5074836;27;45284;-79
2021/10/09 10:08:04;;;;;;;;;31.75;28.25;;;;;;;;5079108;27;45389;-74
2021/10/09 10:10:30;;;;;;;;;43.50;36.75;;;;;;;;5076664;27;45434;-74
2021/10/09 10:12:57;;;;;;;;;44.50;37.50;;;;;;;;5078583;27;45250;-78
2021/10/09 10:15:27;;;;;;;;;31.75;27.50;;;;;;;;5077328;27;45509;-76
2021/10/09 10:17:52;;;;;;;;;39.75;34.75;;;;;;;;5074566;27;45398;-76
2021/10/09 10:20:18;;;;;;;;;41.25;32.25;;;;;;;;5079138;27;45386;-74
2021/10/09 10:22:43;;;;;;;;;27.75;22.75;;;;;;;;5077770;27;46051;-74
2021/10/09 10:25:26;;;;;;;;;35.25;32.25;;;;;;;;5078085;27;45315;-76
2021/10/09 10:27:59;;;;;;;;;31.75;29.75;;;;;;;;5078463;27;45557;-73
2021/10/09 10:30:25;;;;;;;;;33.50;28.25;;;;;;;;5073544;27;45505;-74
2021/10/09 10:33:11;;;;;;;;;30.75;27.75;;;;;;;;5088743;27;47561;-74
2021/10/09 10:35:36;;;;;;;;;32.25;28.50;;;;;;;;5087856;27;45372;-76
2021/10/09 10:38:06;;;;;;;;;25.00;23.00;;;;;;;;5079594;27;45355;-73
2021/10/09 10:40:51;;;;;;;;;23.50;21.75;;;;;;;;5077692;27;45412;-75
2021/10/09 10:46:31;;;;;;;;;24.25;23.25;;;;;;;;5076381;27;45577;-76
2021/10/09 10:57:01;;;;;;;;;22.00;19.75;;;;;;;;5056928;28;45416;-74
2021/10/09 10:59:29;;;;;;;;;20.75;20.50;;;;;;;;5087570;27;45147;-74
2021/10/09 11:02:07;;;;;;;;;25.25;24.25;;;;;;;;5078978;27;45355;-74
2021/10/09 11:04:35;;;;;;;;;27.25;25.75;;;;;;;;5076247;27;45459;-72
2021/10/09 11:07:01;;;;;;;;;30.25;24.25;;;;;;;;5076161;27;45333;-74
2021/10/09 11:09:27;;;;;;;;;20.00;20.00;;;;;;;;5076843;27;45471;-70
2021/10/09 11:11:52;;;;;;;;;23.75;22.25;;;;;;;;5073205;27;45380;-75
2021/10/09 11:14:25;;;;;;;;;26.25;23.00;;;;;;;;5077467;27;46220;-74
2021/10/09 11:16:58;;;;;;;;;22.00;22.00;;;;;;;;5077425;27;45332;-72
2021/10/09 11:19:39;;;;;;;;;22.25;19.75;;;;;;;;5076415;27;45540;-75
2021/10/09 11:22:04;;;;;;;;;21.50;19.25;;;;;;;;5076956;27;45385;-74
2021/10/09 11:24:39;;;;;;;;;20.25;20.25;;;;;;;;5075007;27;47009;-72
2021/10/09 11:27:05;;;;;;;;;21.50;20.00;;;;;;;;5072990;27;45347;-74
2021/10/09 11:29:30;;;;;;;;;18.50;17.00;;;;;;;;5075183;27;45413;-73
2021/10/09 11:32:05;;;;;;;;;16.75;16.25;;;;;;;;5078447;27;45296;-73
2021/10/09 11:34:31;;;;;;;;;19.50;17.00;;;;;;;;5075675;27;46863;-74
2021/10/09 11:36:56;;;;;;;;;18.75;17.50;;;;;;;;5075827;27;45530;-72
2021/10/09 11:39:25;;;;;;;;;16.50;15.75;;;;;;;;5076471;27;46088;-74
2021/10/09 11:42:04;;;;;;;;;22.50;20.25;;;;;;;;5072221;27;45323;-74
2021/10/09 11:44:38;;;;;;;;;16.50;15.00;;;;;;;;5074422;27;47240;-73
2021/10/09 11:55:29;;;;;;;;;13.75;13.50;;;;;;;;5077541;27;45726;-72
2021/10/09 11:57:54;;;;;;;;;17.25;15.50;;;;;;;;5075341;27;45391;-73
2021/10/09 12:00:29;;;;;;;;;17.25;16.75;;;;;;;;5076343;27;45387;-74
2021/10/09 12:02:54;;;;;;;;;21.00;17.50;;;;;;;;5056197;27;45434;-73
2021/10/09 12:05:19;;;;;;;;;15.25;15.25;;;;;;;;5076063;27;46202;-73
2021/10/09 12:08:04;;;;;;;;;16.25;16.25;;;;;;;;5075412;27;45446;-73
2021/10/09 12:10:29;;;;;;;;;12.50;12.00;;;;;;;;5076555;27;45408;-74
2021/10/09 12:13:04;;;;;;;;;15.75;14.75;;;;;;;;5076535;27;45482;-73
2021/10/09 12:15:29;;;;;;;;;14.75;13.00;;;;;;;;5076083;27;46328;-74
2021/10/09 12:17:58;;;;;;;;;14.00;13.00;;;;;;;;5072312;27;45398;-73
2021/10/09 12:20:25;;;;;;;;;16.75;16.25;;;;;;;;5076112;27;45312;-74
2021/10/09 12:22:55;;;;;;;;;12.50;11.25;;;;;;;;5077019;27;45451;-74
2021/10/09 12:25:26;;;;;;;;;17.00;15.00;;;;;;;;5074996;27;46094;-75
2021/10/09 12:27:55;;;;;;;;;15.25;13.50;;;;;;;;5075758;27;45501;-74
2021/10/09 12:30:21;;;;;;;;;18.50;16.75;;;;;;;;5076128;27;45455;-73
2021/10/09 12:32:47;;;;;;;;;18.25;18.25;;;;;;;;5054895;28;45427;-73
2021/10/09 12:35:24;;;;;;;;;15.25;12.75;;;;;;;;5076996;27;45479;-74
2021/10/09 12:37:57;;;;;;;;;16.75;14.75;;;;;;;;5074865;27;45385;-73
2021/10/09 12:40:24;;;;;;;;;17.75;14.00;;;;;;;;5079385;27;45357;-74
2021/10/09 12:42:51;;;;;;;;;12.75;12.25;;;;;;;;5077530;27;45452;-74
2021/10/09 12:45:17;;;;;;;;;16.25;14.75;;;;;;;;5076778;27;46369;-74
2021/10/09 12:47:42;;;;;;;;;14.00;13.50;;;;;;;;5074579;27;45255;-74
2021/10/09 12:50:08;;;;;;;;;18.50;14.25;;;;;;;;5080534;27;45363;-73
2021/10/09 12:52:33;;;;;;;;;16.25;16.25;;;;;;;;5079144;27;45527;-74
2021/10/09 12:54:59;;;;;;;;;13.50;12.25;;;;;;;;5079516;27;47388;-73
2021/10/09 12:57:25;;;;;;;;;16.25;15.00;;;;;;;;5079632;27;45351;-73
2021/10/09 12:59:50;;;;;;;;;13.50;11.75;;;;;;;;5074327;27;45326;-73
2021/10/09 13:02:15;;;;;;;;;12.75;12.75;;;;;;;;5081184;27;45396;-73
2021/10/09 13:04:40;;;;;;;;;17.25;16.50;;;;;;;;5078815;27;46301;-73
2021/10/09 13:07:07;;;;;;;;;14.00;12.25;;;;;;;;5079053;27;45354;-74
2021/10/09 13:09:32;;;;;;;;;15.25;15.25;;;;;;;;5079862;27;45351;-74
2021/10/09 13:12:02;;;;;;;;;11.50;10.25;;;;;;;;5076040;27;45391;-74
2021/10/09 13:14:27;;;;;;;;;12.75;12.00;;;;;;;;5078121;27;45641;-74
2021/10/09 13:16:53;;;;;;;;;13.25;11.50;;;;;;;;5079545;27;45784;-74
2021/10/09 13:19:18;;;;;;;;;14.00;11.00;;;;;;;;5078905;27;45343;-74
2021/10/09 13:21:43;;;;;;;;;11.50;11.50;;;;;;;;5077626;27;45515;-74
2021/10/09 13:24:09;;;;;;;;;14.00;12.50;;;;;;;;5075189;27;46144;-74
2021/10/09 13:26:34;;;;;;;;;15.75;14.25;;;;;;;;5075603;27;45530;-74
2021/10/09 13:28:59;;;;;;;;;15.75;14.50;;;;;;;;5080338;27;45429;-74
2021/10/09 13:31:25;;;;;;;;;13.00;11.75;;;;;;;;5077817;27;45599;-73
2021/10/09 13:33:52;;;;;;;;;14.50;13.50;;;;;;;;5077878;27;45540;-73
2021/10/09 13:36:17;;;;;;;;;14.75;13.25;;;;;;;;5077352;27;45426;-74
2021/10/09 13:38:44;;;;;;;;;12.00;11.00;;;;;;;;5074781;27;45482;-75
2021/10/09 13:41:10;;;;;;;;;13.00;13.00;;;;;;;;5080470;27;45693;-74
2021/10/09 13:43:35;;;;;;;;;13.00;12.00;;;;;;;;5077793;27;46895;-72
2021/10/09 13:46:00;;;;;;;;;18.75;16.75;;;;;;;;5057433;27;45295;-74
2021/10/09 13:48:25;;;;;;;;;13.75;13.75;;;;;;;;5077444;27;45386;-73
2021/10/09 13:50:54;;;;;;;;;18.25;15.00;;;;;;;;5073182;27;45346;-74
2021/10/09 13:53:19;;;;;;;;;13.00;12.50;;;;;;;;5079255;27;45951;-72
2021/10/09 13:55:45;;;;;;;;;12.50;12.50;;;;;;;;5078083;27;45399;-73
2021/10/09 13:58:11;;;;;;;;;11.75;11.75;;;;;;;;5078403;27;45377;-74
2021/10/09 14:00:36;;;;;;;;;11.50;10.75;;;;;;;;5076383;27;45370;-74
2021/10/09 14:03:02;;;;;;;;;17.50;14.50;;;;;;;;5073126;27;46622;-72
2021/10/09 14:05:28;;;;;;;;;13.00;13.00;;;;;;;;5077240;27;45355;-73
2021/10/09 14:07:53;;;;;;;;;11.75;11.75;;;;;;;;5080040;27;45297;-73
2021/10/09 14:10:19;;;;;;;;;14.75;13.75;;;;;;;;5077698;27;45571;-73
2021/10/09 14:12:45;;;;;;;;;12.50;11.25;;;;;;;;5077550;27;46102;-74
2021/10/09 14:15:11;;;;;;;;;13.00;12.25;;;;;;;;5075798;27;45666;-73
2021/10/09 14:17:37;;;;;;;;;13.00;12.00;;;;;;;;5074918;27;45401;-74
2021/10/09 14:20:03;;;;;;;;;10.75;10.75;;;;;;;;5079830;27;45350;-74
2021/10/09 14:22:29;;;;;;;;;12.25;11.25;;;;;;;;5077820;27;47287;-73
2021/10/09 14:24:54;;;;;;;;;11.50;10.25;;;;;;;;5078064;27;45528;-75
2021/10/09 14:27:19;;;;;;;;;9.25;9.25;;;;;;;;5076801;27;45436;-73
2021/10/09 14:29:44;;;;;;;;;10.25;10.25;;;;;;;;5073134;27;45589;-73
2021/10/09 14:32:10;;;;;;;;;16.25;13.50;;;;;;;;5079567;27;46019;-73
2021/10/09 14:34:35;;;;;;;;;11.50;11.50;;;;;;;;5077252;27;45517;-73
2021/10/09 14:37:00;;;;;;;;;11.00;11.00;;;;;;;;5077628;27;45495;-74
2021/10/09 14:39:27;;;;;;;;;13.50;13.50;;;;;;;;5076326;27;45391;-75
2021/10/09 14:41:52;;;;;;;;;13.25;13.25;;;;;;;;5071787;27;46968;-75
2021/10/09 14:44:18;;;;;;;;;13.50;12.50;;;;;;;;5078684;27;45804;-73
2021/10/09 14:49:19;;;;;;;;;14.00;11.25;;;;;;;;5076687;27;45487;-74
2021/10/09 15:18:47;;;;;;;;;17.00;13.75;;;;;;;;5019850;28;45460;-74
2021/10/09 15:21:12;;;;;;;;;11.00;11.00;;;;;;;;5011823;28;45404;-74
2021/10/09 15:23:37;;;;;;;;;14.25;14.25;;;;;;;;5009618;28;45482;-75
2021/10/09 15:26:03;;;;;;;;;13.75;11.25;;;;;;;;5013323;28;45558;-73
2021/10/09 15:28:28;;;;;;;;;15.25;13.00;;;;;;;;5017108;28;45340;-74
2021/10/09 15:30:53;;;;;;;;;17.50;15.50;;;;;;;;5019718;28;45328;-73
2021/10/09 15:33:19;;;;;;;;;13.50;12.50;;;;;;;;5020075;28;47201;-72
2021/10/09 15:35:45;;;;;;;;;16.00;14.00;;;;;;;;5024899;28;45375;-73
2021/10/09 15:38:10;;;;;;;;;12.75;12.75;;;;;;;;5015348;28;45342;-74
2021/10/09 15:40:35;;;;;;;;;16.25;14.25;;;;;;;;5023599;27;45400;-74
2021/10/09 15:43:01;;;;;;;;;16.00;16.00;;;;;;;;5081795;27;45454;-74
2021/10/09 15:45:26;;;;;;;;;15.75;14.50;;;;;;;;5076895;27;45355;-73
2021/10/09 15:47:52;;;;;;;;;15.00;15.00;;;;;;;;5072335;27;45473;-75
2021/10/09 15:50:18;;;;;;;;;12.50;12.50;;;;;;;;5077987;27;45367;-74
2021/10/09 15:52:43;;;;;;;;;16.25;15.50;;;;;;;;5076164;27;45517;-74
2021/10/09 15:55:12;;;;;;;;;15.25;15.25;;;;;;;;5076283;27;45288;-74
2021/10/09 15:57:37;;;;;;;;;12.75;11.50;;;;;;;;5074675;27;46194;-74
2021/10/09 16:00:07;;;;;;;;;17.75;16.00;;;;;;;;5072082;27;45348;-73
2021/10/09 16:02:32;;;;;;;;;17.50;16.75;;;;;;;;5074121;27;46913;-74
2021/10/09 16:04:57;;;;;;;;;15.50;15.50;;;;;;;;5078052;27;45469;-73
2021/10/09 16:07:23;;;;;;;;;15.25;14.50;;;;;;;;5076615;27;45358;-75
2021/10/09 16:09:48;;;;;;;;;16.75;16.00;;;;;;;;5057769;28;45554;-73
2021/10/09 16:12:13;;;;;;;;;29.00;28.50;;;;;;;;5074534;27;46509;-73
2021/10/09 16:14:38;;;;;;;;;15.00;13.50;;;;;;;;5073138;27;45333;-73
2021/10/09 16:17:03;;;;;;;;;16.75;14.75;;;;;;;;5078601;27;45265;-73
2021/10/09 16:19:29;;;;;;;;;23.75;19.50;;;;;;;;5076410;27;45390;-73
2021/10/09 16:21:54;;;;;;;;;15.75;14.00;;;;;;;;5076269;27;45286;-74
2021/10/09 16:24:20;;;;;;;;;15.75;15.25;;;;;;;;5076351;27;45443;-73
2021/10/09 16:26:46;;;;;;;;;15.50;15.00;;;;;;;;5087635;27;45353;-73
2021/10/09 16:29:11;;;;;;;;;22.50;18.00;;;;;;;;5077522;27;45452;-74
2021/10/09 16:31:37;;;;;;;;;18.25;17.00;;;;;;;;5075510;27;46454;-73
2021/10/09 16:34:02;;;;;;;;;19.75;18.00;;;;;;;;5075551;27;45243;-74
2021/10/09 16:36:28;;;;;;;;;17.00;15.50;;;;;;;;5074587;27;45376;-73
2021/10/09 16:38:53;;;;;;;;;19.00;19.00;;;;;;;;5070936;27;45342;-73
2021/10/09 16:41:20;;;;;;;;;21.25;19.00;;;;;;;;5077152;27;46265;-74
2021/10/09 16:43:45;;;;;;;;;22.00;20.75;;;;;;;;5076696;27;45577;-72
2021/10/09 16:46:11;;;;;;;;;19.25;17.75;;;;;;;;5076809;27;45307;-74
2021/10/09 16:48:36;;;;;;;;;22.00;18.00;;;;;;;;5076856;27;45414;-74
2021/10/09 16:51:01;;;;;;;;;21.50;20.50;;;;;;;;5073848;27;45360;-74
2021/10/09 16:53:27;;;;;;;;;18.75;17.75;;;;;;;;5076037;27;45413;-73